Time;durP1;ratioP1;P1;durP2;ratioP2;P2;SDS_P1;SDS_P2;PMS_P1;PMS_P2;Temp;Humidity;BMP_temperature;BMP_pressure;BME280_temperature;BME280_humidity;BME280_pressure;Samples;Min_cycle;Max_cycle;Signal;HPM_P1;HPM_P2
2024/01/18 00:00:40;;;;;;;6.72;0.63;;;;;;;;;;5008116;28;20366;-65
2024/01/18 00:03:06;;;;;;;2.90;0.63;;;;;;;;;;5001652;28;20051;-65
2024/01/18 00:05:33;;;;;;;3.65;0.60;;;;;;;;;;5023350;28;20059;-65
2024/01/18 00:07:59;;;;;;;5.97;1.10;;;;;;;;;;5018475;28;20484;-65
2024/01/18 00:10:28;;;;;;;6.43;1.20;;;;;;;;;;5034816;28;20480;-65
2024/01/18 00:12:54;;;;;;;10.73;1.20;;;;;;;;;;5027337;28;20080;-65
2024/01/18 00:15:21;;;;;;;3.20;0.70;;;;;;;;;;5040095;28;20407;-65
2024/01/18 00:17:48;;;;;;;4.10;0.82;;;;;;;;;;5021060;28;20052;-65
2024/01/18 00:20:14;;;;;;;7.60;0.77;;;;;;;;;;5016629;28;20042;-65
2024/01/18 00:22:40;;;;;;;5.20;0.65;;;;;;;;;;5022365;28;20048;-65
2024/01/18 00:25:07;;;;;;;5.40;0.68;;;;;;;;;;5034290;28;20113;-65
2024/01/18 00:27:33;;;;;;;7.03;1.15;;;;;;;;;;5033844;28;20068;-65
2024/01/18 00:29:59;;;;;;;5.18;0.68;;;;;;;;;;5033530;28;20075;-65
2024/01/18 00:32:25;;;;;;;5.22;0.93;;;;;;;;;;5034498;28;20519;-65
2024/01/18 00:34:52;;;;;;;8.32;1.25;;;;;;;;;;5033646;28;20176;-65
2024/01/18 00:37:18;;;;;;;5.55;0.93;;;;;;;;;;5050314;28;20577;-65
2024/01/18 00:39:44;;;;;;;5.55;1.00;;;;;;;;;;5034191;28;20527;-65
2024/01/18 00:42:11;;;;;;;7.05;1.05;;;;;;;;;;5044662;28;20120;-65
2024/01/18 00:44:37;;;;;;;4.22;1.55;;;;;;;;;;5034920;28;20127;-65
2024/01/18 00:47:03;;;;;;;4.10;0.70;;;;;;;;;;5034342;28;20041;-65
2024/01/18 00:49:29;;;;;;;3.42;1.10;;;;;;;;;;5051242;28;20053;-65
2024/01/18 00:51:55;;;;;;;5.00;0.80;;;;;;;;;;5031430;28;20439;-65
2024/01/18 00:54:21;;;;;;;6.18;0.90;;;;;;;;;;5021961;28;20378;-65
2024/01/18 00:56:48;;;;;;;6.05;0.95;;;;;;;;;;5032164;28;20088;-65
2024/01/18 00:59:14;;;;;;;5.85;1.05;;;;;;;;;;5031359;28;20049;-65
2024/01/18 01:01:40;;;;;;;3.03;0.73;;;;;;;;;;5034547;28;20083;-65
2024/01/18 01:04:06;;;;;;;5.47;0.85;;;;;;;;;;5013021;28;20500;-65
2024/01/18 01:06:32;;;;;;;5.07;0.80;;;;;;;;;;5034752;28;20053;-65
2024/01/18 01:08:59;;;;;;;5.28;0.88;;;;;;;;;;5034216;28;20106;-65
2024/01/18 01:11:25;;;;;;;7.15;0.70;;;;;;;;;;5033412;28;20167;-65
2024/01/18 01:13:51;;;;;;;3.92;0.70;;;;;;;;;;5034584;28;20045;-65
2024/01/18 01:16:19;;;;;;;2.30;0.55;;;;;;;;;;5019553;28;20369;-65
2024/01/18 01:18:45;;;;;;;4.65;0.50;;;;;;;;;;5024328;28;20115;-65
2024/01/18 01:21:11;;;;;;;6.25;0.60;;;;;;;;;;5034604;28;20044;-65
2024/01/18 01:23:41;;;;;;;2.70;0.50;;;;;;;;;;5026672;28;20049;-65
2024/01/18 01:26:09;;;;;;;2.38;0.70;;;;;;;;;;5030087;28;20076;-65
2024/01/18 01:28:35;;;;;;;3.70;0.77;;;;;;;;;;5032333;28;20048;-66
2024/01/18 01:31:02;;;;;;;4.50;0.70;;;;;;;;;;5051796;28;20394;-65
2024/01/18 01:33:28;;;;;;;6.15;0.85;;;;;;;;;;5053974;28;20041;-65
2024/01/18 01:35:54;;;;;;;7.05;0.60;;;;;;;;;;5036790;28;20115;-65
2024/01/18 01:38:20;;;;;;;3.75;0.60;;;;;;;;;;5049645;28;20071;-65
2024/01/18 01:40:47;;;;;;;4.95;0.70;;;;;;;;;;5030590;28;20053;-65
2024/01/18 01:43:13;;;;;;;4.72;0.85;;;;;;;;;;5044109;28;20504;-65
2024/01/18 01:45:40;;;;;;;2.10;0.50;;;;;;;;;;5033484;28;20485;-65
2024/01/18 01:48:08;;;;;;;4.72;0.50;;;;;;;;;;5038021;28;20055;-65
2024/01/18 01:50:35;;;;;;;1.92;0.50;;;;;;;;;;5053677;28;20056;-65
2024/01/18 01:53:01;;;;;;;1.10;0.30;;;;;;;;;;5019609;28;20053;-65
2024/01/18 01:55:27;;;;;;;10.80;0.95;;;;;;;;;;4999899;28;20061;-65
2024/01/18 01:57:53;;;;;;;5.53;0.60;;;;;;;;;;5025036;28;20056;-65
2024/01/18 02:00:21;;;;;;;5.00;1.30;;;;;;;;;;5043292;28;20040;-65
2024/01/18 02:02:48;;;;;;;2.38;0.43;;;;;;;;;;5028383;28;20072;-65
2024/01/18 02:05:15;;;;;;;4.10;0.60;;;;;;;;;;5024278;28;20127;-65
2024/01/18 02:07:41;;;;;;;3.97;0.50;;;;;;;;;;5038412;28;20112;-65
2024/01/18 02:10:07;;;;;;;5.53;0.57;;;;;;;;;;5026549;28;20055;-65
2024/01/18 02:12:34;;;;;;;3.50;0.55;;;;;;;;;;5024775;28;20071;-65
2024/01/18 02:15:00;;;;;;;2.70;0.70;;;;;;;;;;5030597;28;20198;-65
2024/01/18 02:17:26;;;;;;;0.95;0.40;;;;;;;;;;5043138;28;20038;-65
2024/01/18 02:19:52;;;;;;;2.15;0.60;;;;;;;;;;5051776;28;20091;-65
2024/01/18 02:22:20;;;;;;;5.32;0.80;;;;;;;;;;5049142;28;20464;-65
2024/01/18 02:24:51;;;;;;;3.08;0.63;;;;;;;;;;5029285;28;20051;-65
2024/01/18 02:27:19;;;;;;;2.17;0.60;;;;;;;;;;5049263;28;20135;-65
2024/01/18 02:29:45;;;;;;;1.27;0.50;;;;;;;;;;5034349;28;20135;-65
2024/01/18 02:32:11;;;;;;;5.70;0.88;;;;;;;;;;5021724;28;20045;-65
2024/01/18 02:34:39;;;;;;;6.05;0.85;;;;;;;;;;5022369;28;20049;-65
2024/01/18 02:37:06;;;;;;;3.75;0.60;;;;;;;;;;5026698;28;20057;-65
2024/01/18 02:39:33;;;;;;;2.53;0.70;;;;;;;;;;5034902;28;20044;-65
2024/01/18 02:41:59;;;;;;;1.80;0.52;;;;;;;;;;5015947;28;20472;-65
2024/01/18 02:44:26;;;;;;;8.43;1.00;;;;;;;;;;5049799;28;20074;-65
2024/01/18 02:46:52;;;;;;;4.60;0.70;;;;;;;;;;5053387;28;20033;-65
2024/01/18 02:49:18;;;;;;;6.40;0.57;;;;;;;;;;5051162;28;20041;-65
2024/01/18 02:51:45;;;;;;;3.40;0.68;;;;;;;;;;5026744;28;20163;-65
2024/01/18 02:54:11;;;;;;;6.38;1.13;;;;;;;;;;5048450;28;20400;-65
2024/01/18 02:56:37;;;;;;;4.80;1.02;;;;;;;;;;5037436;28;20045;-66
2024/01/18 02:59:04;;;;;;;6.75;1.05;;;;;;;;;;5050155;28;20068;-65
2024/01/18 03:01:32;;;;;;;4.32;0.52;;;;;;;;;;5035248;28;20120;-65
2024/01/18 03:03:58;;;;;;;9.63;1.40;;;;;;;;;;5025660;28;20124;-65
2024/01/18 03:06:24;;;;;;;7.13;0.65;;;;;;;;;;5043853;28;20171;-65
2024/01/18 03:08:50;;;;;;;5.85;0.90;;;;;;;;;;5045543;28;20509;-65
2024/01/18 03:11:17;;;;;;;5.10;0.85;;;;;;;;;;5042415;28;20401;-65
2024/01/18 03:13:43;;;;;;;4.13;0.82;;;;;;;;;;5048301;28;20072;-65
2024/01/18 03:16:09;;;;;;;2.90;0.45;;;;;;;;;;5030858;28;20049;-65
2024/01/18 03:18:36;;;;;;;2.50;0.35;;;;;;;;;;5046688;28;20048;-65
2024/01/18 03:21:06;;;;;;;4.60;0.57;;;;;;;;;;5050593;28;20132;-65
2024/01/18 03:23:32;;;;;;;5.18;0.50;;;;;;;;;;5044213;28;20053;-65
2024/01/18 03:25:58;;;;;;;5.07;0.65;;;;;;;;;;5050996;28;20424;-65
2024/01/18 03:28:24;;;;;;;1.75;0.40;;;;;;;;;;5045568;28;20133;-65
2024/01/18 03:30:51;;;;;;;4.55;0.50;;;;;;;;;;5027582;28;20089;-65
2024/01/18 03:33:17;;;;;;;3.28;0.40;;;;;;;;;;5056433;28;20178;-65
2024/01/18 03:35:43;;;;;;;7.53;0.60;;;;;;;;;;5035253;28;20055;-65
2024/01/18 03:38:09;;;;;;;4.53;0.35;;;;;;;;;;5038740;28;20125;-65
2024/01/18 03:40:36;;;;;;;4.57;0.50;;;;;;;;;;5061288;28;20041;-65
2024/01/18 03:43:03;;;;;;;4.60;0.60;;;;;;;;;;5054325;28;20712;-65
2024/01/18 03:45:29;;;;;;;4.25;0.70;;;;;;;;;;5050455;28;20044;-65
2024/01/18 03:47:55;;;;;;;5.65;0.60;;;;;;;;;;5042565;28;20488;-65
2024/01/18 03:50:21;;;;;;;2.60;0.40;;;;;;;;;;5043597;28;20065;-65
2024/01/18 03:52:47;;;;;;;5.40;1.15;;;;;;;;;;5059194;28;20437;-65
2024/01/18 03:55:13;;;;;;;5.57;0.60;;;;;;;;;;5033146;28;20072;-65
2024/01/18 03:57:40;;;;;;;4.55;1.08;;;;;;;;;;5042909;28;20040;-65
2024/01/18 04:00:06;;;;;;;5.07;0.80;;;;;;;;;;5050498;28;20053;-65
2024/01/18 04:02:33;;;;;;;3.00;0.43;;;;;;;;;;5056286;28;20488;-65
2024/01/18 04:04:59;;;;;;;1.10;0.43;;;;;;;;;;5025530;28;20131;-65
2024/01/18 04:07:25;;;;;;;3.63;0.50;;;;;;;;;;5030647;28;20044;-65
2024/01/18 04:09:51;;;;;;;1.65;0.50;;;;;;;;;;5015829;28;20047;-65
2024/01/18 04:12:17;;;;;;;5.50;0.60;;;;;;;;;;5026379;28;20384;-65
2024/01/18 04:14:44;;;;;;;1.58;0.40;;;;;;;;;;5023651;28;20057;-65
2024/01/18 04:17:11;;;;;;;3.45;0.50;;;;;;;;;;5022989;28;20176;-65
2024/01/18 04:19:39;;;;;;;6.55;0.45;;;;;;;;;;5027570;28;20041;-65
2024/01/18 04:22:05;;;;;;;3.55;0.50;;;;;;;;;;5020284;28;20037;-65
2024/01/18 04:24:32;;;;;;;5.53;0.50;;;;;;;;;;5023942;28;20041;-65
2024/01/18 04:26:58;;;;;;;2.95;0.38;;;;;;;;;;5022104;28;20061;-65
2024/01/18 04:29:24;;;;;;;5.53;0.60;;;;;;;;;;5023725;28;20049;-65
2024/01/18 04:31:50;;;;;;;3.92;0.57;;;;;;;;;;5017860;28;20038;-65
2024/01/18 04:34:16;;;;;;;3.58;0.73;;;;;;;;;;5038447;28;20381;-65
2024/01/18 04:36:43;;;;;;;3.40;1.00;;;;;;;;;;5038932;28;20037;-65
2024/01/18 04:39:09;;;;;;;2.20;0.50;;;;;;;;;;5019662;28;20045;-65
2024/01/18 04:41:35;;;;;;;4.47;0.52;;;;;;;;;;5022531;28;20050;-65
2024/01/18 04:44:02;;;;;;;5.82;0.60;;;;;;;;;;5022079;28;20049;-65
2024/01/18 04:46:30;;;;;;;5.30;0.50;;;;;;;;;;5041560;28;20048;-65
2024/01/18 04:48:56;;;;;;;4.90;1.38;;;;;;;;;;5040462;28;20046;-65
2024/01/18 04:51:22;;;;;;;4.38;0.65;;;;;;;;;;5029620;28;20430;-65
2024/01/18 04:53:49;;;;;;;3.60;0.32;;;;;;;;;;5019953;28;20076;-65
2024/01/18 04:56:15;;;;;;;10.55;0.68;;;;;;;;;;5035274;28;20055;-65
2024/01/18 04:58:41;;;;;;;1.63;0.40;;;;;;;;;;5019619;28;20050;-65
2024/01/18 05:01:08;;;;;;;4.90;0.40;;;;;;;;;;5037171;28;20578;-65
2024/01/18 05:03:34;;;;;;;4.65;0.85;;;;;;;;;;5018331;28;20079;-66
2024/01/18 05:06:00;;;;;;;7.20;1.50;;;;;;;;;;5039073;28;20497;-65
2024/01/18 05:08:26;;;;;;;5.75;0.70;;;;;;;;;;5037917;28;20037;-65
2024/01/18 05:10:54;;;;;;;4.57;0.47;;;;;;;;;;5022454;28;20052;-65
2024/01/18 05:13:21;;;;;;;5.53;0.60;;;;;;;;;;5026228;28;20349;-65
2024/01/18 05:15:48;;;;;;;6.38;0.50;;;;;;;;;;5018278;28;20046;-65
2024/01/18 05:18:14;;;;;;;3.75;0.60;;;;;;;;;;5024648;28;20090;-65
2024/01/18 05:20:40;;;;;;;4.57;0.60;;;;;;;;;;5020622;28;20262;-65
2024/01/18 05:23:06;;;;;;;4.10;0.60;;;;;;;;;;5023792;28;20396;-65
2024/01/18 05:25:33;;;;;;;10.25;1.58;;;;;;;;;;5041003;28;20041;-65
2024/01/18 05:28:00;;;;;;;3.88;0.75;;;;;;;;;;5036612;28;20088;-65
2024/01/18 05:30:27;;;;;;;7.78;0.80;;;;;;;;;;5042177;28;20045;-65
2024/01/18 05:32:54;;;;;;;6.88;1.65;;;;;;;;;;5040285;28;20052;-65
2024/01/18 05:35:20;;;;;;;5.40;1.02;;;;;;;;;;5020428;28;20037;-65
2024/01/18 05:37:46;;;;;;;3.78;0.47;;;;;;;;;;5041543;28;20208;-65
2024/01/18 05:40:12;;;;;;;4.28;0.60;;;;;;;;;;5023587;28;20091;-65
2024/01/18 05:42:39;;;;;;;6.45;0.63;;;;;;;;;;5042348;28;20150;-65
2024/01/18 05:45:06;;;;;;;2.90;1.23;;;;;;;;;;5026895;28;20409;-65
2024/01/18 05:47:32;;;;;;;5.57;0.80;;;;;;;;;;5040429;28;20079;-65
2024/01/18 05:49:58;;;;;;;1.60;0.80;;;;;;;;;;5025447;28;20465;-65
2024/01/18 05:52:24;;;;;;;6.65;0.90;;;;;;;;;;5044384;28;20067;-65
2024/01/18 05:54:52;;;;;;;7.22;1.00;;;;;;;;;;5043816;28;20128;-65
2024/01/18 05:57:18;;;;;;;3.17;0.60;;;;;;;;;;5043179;28;20048;-65
2024/01/18 05:59:44;;;;;;;3.33;0.60;;;;;;;;;;5042832;28;20433;-65
2024/01/18 06:02:10;;;;;;;4.57;2.50;;;;;;;;;;5044169;28;20033;-65
2024/01/18 06:04:36;;;;;;;4.15;0.75;;;;;;;;;;5029835;28;20048;-65
2024/01/18 06:07:03;;;;;;;3.25;0.82;;;;;;;;;;5044606;28;22179;-65
2024/01/18 06:09:29;;;;;;;6.90;1.65;;;;;;;;;;5029003;28;20041;-65
2024/01/18 06:11:55;;;;;;;8.00;1.65;;;;;;;;;;5047245;28;20483;-65
2024/01/18 06:14:22;;;;;;;4.45;0.93;;;;;;;;;;5045368;28;20101;-65
2024/01/18 06:16:48;;;;;;;8.55;1.00;;;;;;;;;;5047525;28;20037;-65
2024/01/18 06:19:14;;;;;;;6.07;1.27;;;;;;;;;;5032889;28;20047;-65
2024/01/18 06:21:41;;;;;;;4.35;0.95;;;;;;;;;;5035911;28;20045;-65
2024/01/18 06:24:07;;;;;;;3.30;1.05;;;;;;;;;;5051662;28;20096;-65
2024/01/18 06:26:34;;;;;;;5.63;2.30;;;;;;;;;;5036610;28;20135;-65
2024/01/18 06:29:00;;;;;;;6.72;1.05;;;;;;;;;;5053668;28;20456;-65
2024/01/18 06:31:27;;;;;;;7.20;0.90;;;;;;;;;;5023334;28;20045;-65
2024/01/18 06:33:56;;;;;;;5.57;0.98;;;;;;;;;;5055539;28;20665;-65
2024/01/18 06:36:23;;;;;;;3.72;1.10;;;;;;;;;;5039440;28;20071;-65
2024/01/18 06:38:49;;;;;;;6.95;1.30;;;;;;;;;;5050095;28;20060;-65
2024/01/18 06:41:16;;;;;;;10.25;1.20;;;;;;;;;;5036148;28;20128;-65
2024/01/18 06:43:42;;;;;;;5.32;1.20;;;;;;;;;;5026293;28;20049;-65
2024/01/18 06:46:16;;;;;;;5.80;0.90;;;;;;;;;;5038398;28;20446;-65
2024/01/18 06:48:42;;;;;;;4.50;0.90;;;;;;;;;;5014190;28;20458;-65
2024/01/18 06:51:09;;;;;;;8.50;2.10;;;;;;;;;;5013166;28;20041;-65
2024/01/18 06:53:35;;;;;;;19.38;3.38;;;;;;;;;;5014191;28;20041;-65
2024/01/18 06:56:01;;;;;;;14.93;1.40;;;;;;;;;;5030884;28;20657;-65
2024/01/18 06:58:27;;;;;;;9.25;1.55;;;;;;;;;;5014708;28;20042;-65
2024/01/18 07:00:54;;;;;;;5.63;1.00;;;;;;;;;;5021541;28;20045;-65
2024/01/18 07:03:20;;;;;;;4.97;1.02;;;;;;;;;;5040663;28;20049;-65
2024/01/18 07:05:47;;;;;;;7.78;1.13;;;;;;;;;;5016335;28;20057;-65
2024/01/18 07:08:13;;;;;;;7.97;1.20;;;;;;;;;;5031765;28;20045;-65
2024/01/18 07:10:39;;;;;;;3.10;0.90;;;;;;;;;;5019406;28;20045;-66
2024/01/18 07:13:06;;;;;;;4.80;1.10;;;;;;;;;;5028863;28;20565;-65
2024/01/18 07:15:32;;;;;;;8.50;1.20;;;;;;;;;;5038220;28;20037;-65
2024/01/18 07:17:58;;;;;;;10.43;1.15;;;;;;;;;;5023807;28;20398;-66
2024/01/18 07:20:25;;;;;;;6.72;0.85;;;;;;;;;;5021074;28;20048;-65
2024/01/18 07:22:51;;;;;;;6.15;1.17;;;;;;;;;;5023578;28;20208;-65
2024/01/18 07:25:19;;;;;;;2.35;0.75;;;;;;;;;;5042430;28;20148;-65
2024/01/18 07:27:45;;;;;;;4.60;1.20;;;;;;;;;;5009826;28;20129;-65
2024/01/18 07:30:14;;;;;;;10.82;1.30;;;;;;;;;;5007364;28;20053;-66
2024/01/18 07:32:40;;;;;;;5.15;0.85;;;;;;;;;;5008882;28;20515;-65
2024/01/18 07:35:06;;;;;;;7.10;0.85;;;;;;;;;;5007774;28;20045;-65
2024/01/18 07:37:33;;;;;;;9.52;1.15;;;;;;;;;;5024904;28;20439;-65
2024/01/18 07:39:59;;;;;;;3.38;0.98;;;;;;;;;;5036027;28;20049;-65
2024/01/18 07:42:25;;;;;;;11.32;1.50;;;;;;;;;;5011709;28;20337;-65
2024/01/18 07:44:51;;;;;;;4.50;0.73;;;;;;;;;;4999593;28;20046;-65
2024/01/18 07:47:18;;;;;;;5.63;1.10;;;;;;;;;;5006105;28;20042;-65
2024/01/18 07:49:46;;;;;;;5.50;1.30;;;;;;;;;;5013536;28;20132;-65
2024/01/18 07:52:13;;;;;;;9.68;1.40;;;;;;;;;;5017200;28;20045;-65
2024/01/18 07:54:39;;;;;;;8.57;1.20;;;;;;;;;;5025404;28;20072;-66
2024/01/18 07:57:06;;;;;;;3.17;1.27;;;;;;;;;;5003358;28;20053;-65
2024/01/18 07:59:32;;;;;;;6.18;2.75;;;;;;;;;;5008221;28;20099;-65
2024/01/18 08:01:59;;;;;;;5.10;1.13;;;;;;;;;;5024740;28;20049;-65
2024/01/18 08:04:25;;;;;;;8.13;1.85;;;;;;;;;;5007445;28;20054;-65
2024/01/18 08:06:52;;;;;;;6.10;1.65;;;;;;;;;;5020797;28;20038;-66
2024/01/18 08:09:18;;;;;;;5.65;1.60;;;;;;;;;;5020104;28;20431;-67
2024/01/18 08:11:45;;;;;;;9.95;1.60;;;;;;;;;;5006583;28;20122;-65
2024/01/18 08:14:11;;;;;;;9.82;2.80;;;;;;;;;;5021885;28;20049;-65
2024/01/18 08:16:37;;;;;;;10.80;1.90;;;;;;;;;;5005857;28;20081;-65
2024/01/18 08:19:03;;;;;;;7.63;1.92;;;;;;;;;;5009580;28;20401;-66
2024/01/18 08:21:29;;;;;;;7.13;1.85;;;;;;;;;;5008517;28;20416;-65
2024/01/18 08:23:56;;;;;;;9.10;1.80;;;;;;;;;;5027991;28;20041;-65
2024/01/18 08:26:22;;;;;;;4.97;1.52;;;;;;;;;;5008147;28;20046;-65
2024/01/18 08:28:48;;;;;;;8.75;1.63;;;;;;;;;;5022881;28;20095;-65
2024/01/18 08:31:14;;;;;;;8.13;1.67;;;;;;;;;;5029368;28;20488;-66
2024/01/18 08:33:40;;;;;;;5.43;1.45;;;;;;;;;;5057554;28;20041;-66
2024/01/18 08:36:07;;;;;;;5.93;1.42;;;;;;;;;;5050590;28;20052;-70
2024/01/18 08:38:34;;;;;;;8.50;1.90;;;;;;;;;;5026100;28;20507;-69
2024/01/18 08:41:00;;;;;;;6.45;2.08;;;;;;;;;;5020462;28;20041;-71
2024/01/18 08:43:27;;;;;;;7.45;1.88;;;;;;;;;;5043527;28;20048;-70
2024/01/18 08:45:54;;;;;;;6.05;1.02;;;;;;;;;;5020919;28;20038;-70
2024/01/18 08:48:20;;;;;;;7.97;1.60;;;;;;;;;;5044453;28;20113;-75
2024/01/18 08:50:47;;;;;;;10.00;1.80;;;;;;;;;;5024106;28;20046;-67
2024/01/18 08:53:13;;;;;;;5.72;1.30;;;;;;;;;;5026183;28;20056;-67
2024/01/18 08:55:41;;;;;;;9.23;1.27;;;;;;;;;;5031034;28;20120;-66
2024/01/18 08:58:07;;;;;;;4.45;1.10;;;;;;;;;;5048438;28;20092;-65
2024/01/18 09:00:34;;;;;;;6.03;1.33;;;;;;;;;;5029109;28;20052;-66
2024/01/18 09:03:00;;;;;;;7.63;1.92;;;;;;;;;;5045589;28;20048;-65
2024/01/18 09:05:27;;;;;;;6.35;1.95;;;;;;;;;;5022487;28;20110;-66
2024/01/18 09:07:53;;;;;;;4.43;1.13;;;;;;;;;;5031879;28;20041;-67
2024/01/18 09:10:20;;;;;;;3.05;1.00;;;;;;;;;;5027172;28;20071;-66
2024/01/18 09:12:47;;;;;;;2.13;0.98;;;;;;;;;;5028001;28;20434;-66
2024/01/18 09:15:14;;;;;;;5.80;0.93;;;;;;;;;;5047742;28;20095;-66
2024/01/18 09:17:41;;;;;;;5.78;1.00;;;;;;;;;;5050467;28;20088;-66
2024/01/18 09:20:09;;;;;;;8.55;0.90;;;;;;;;;;5047082;28;20380;-66
2024/01/18 09:22:35;;;;;;;4.63;1.08;;;;;;;;;;5041986;28;20097;-66
2024/01/18 09:25:01;;;;;;;6.00;0.63;;;;;;;;;;5039852;28;20572;-66
2024/01/18 09:27:27;;;;;;;4.50;0.70;;;;;;;;;;5046857;28;20435;-66
2024/01/18 09:29:57;;;;;;;4.65;0.75;;;;;;;;;;5030350;28;20071;-66
2024/01/18 09:32:25;;;;;;;2.60;0.60;;;;;;;;;;5023258;28;20064;-66
2024/01/18 09:34:51;;;;;;;3.10;0.70;;;;;;;;;;5030821;28;20044;-66
2024/01/18 09:37:18;;;;;;;4.13;0.82;;;;;;;;;;5042940;28;20091;-66
2024/01/18 09:39:45;;;;;;;3.30;0.50;;;;;;;;;;5023990;28;20123;-66
2024/01/18 09:42:15;;;;;;;2.13;0.60;;;;;;;;;;5046923;28;20037;-66
2024/01/18 09:44:45;;;;;;;4.55;0.57;;;;;;;;;;5047170;28;20595;-66
2024/01/18 09:47:13;;;;;;;4.28;0.57;;;;;;;;;;5031187;28;20045;-66
2024/01/18 09:49:42;;;;;;;2.22;0.45;;;;;;;;;;5048591;28;20078;-66
2024/01/18 09:52:08;;;;;;;2.28;0.50;;;;;;;;;;5048410;28;20230;-66
2024/01/18 09:54:35;;;;;;;1.67;0.50;;;;;;;;;;5028752;28;20102;-66
2024/01/18 09:57:02;;;;;;;2.70;0.50;;;;;;;;;;5027789;28;20045;-67
2024/01/18 09:59:28;;;;;;;2.33;0.40;;;;;;;;;;5024470;28;20045;-66
2024/01/18 10:01:56;;;;;;;2.55;0.50;;;;;;;;;;5033986;28;20041;-66
2024/01/18 10:04:22;;;;;;;3.30;0.70;;;;;;;;;;5052326;28;20095;-66
2024/01/18 10:06:49;;;;;;;1.30;0.40;;;;;;;;;;5029826;28;20052;-66
2024/01/18 10:09:15;;;;;;;1.40;0.38;;;;;;;;;;5047101;28;20569;-67
2024/01/18 10:11:44;;;;;;;1.70;0.35;;;;;;;;;;5031974;28;20527;-66
2024/01/18 10:14:10;;;;;;;5.85;0.50;;;;;;;;;;5027735;28;20040;-66
2024/01/18 10:16:37;;;;;;;0.45;0.20;;;;;;;;;;5041655;28;20045;-66
2024/01/18 10:19:05;;;;;;;2.75;0.57;;;;;;;;;;5029328;28;20044;-66
2024/01/18 10:21:33;;;;;;;8.00;0.85;;;;;;;;;;5030402;28;20059;-66
2024/01/18 10:23:59;;;;;;;6.20;0.98;;;;;;;;;;5056231;28;20036;-66
2024/01/18 10:26:30;;;;;;;11.23;1.20;;;;;;;;;;5055443;28;21153;-66
2024/01/18 10:28:57;;;;;;;8.00;1.00;;;;;;;;;;5027109;28;20061;-66
2024/01/18 10:31:24;;;;;;;3.13;0.50;;;;;;;;;;5022733;28;20070;-65
2024/01/18 10:33:51;;;;;;;1.17;0.55;;;;;;;;;;5031533;28;20067;-66
2024/01/18 10:36:18;;;;;;;2.85;0.65;;;;;;;;;;5026194;28;20044;-65
2024/01/18 10:38:44;;;;;;;5.15;0.70;;;;;;;;;;5045157;28;20037;-66
2024/01/18 10:41:11;;;;;;;3.50;0.43;;;;;;;;;;5025017;28;20432;-72
2024/01/18 10:43:38;;;;;;;4.60;1.13;;;;;;;;;;5039941;28;20075;-66
2024/01/18 10:46:05;;;;;;;2.13;0.57;;;;;;;;;;5025459;28;20539;-66
2024/01/18 10:48:32;;;;;;;2.78;0.65;;;;;;;;;;5040006;28;20439;-65
2024/01/18 10:50:58;;;;;;;3.30;0.63;;;;;;;;;;5039422;28;20515;-66
2024/01/18 10:53:25;;;;;;;2.75;0.73;;;;;;;;;;5043180;28;20689;-66
2024/01/18 10:55:52;;;;;;;2.35;0.40;;;;;;;;;;5042712;28;20124;-66
2024/01/18 10:58:18;;;;;;;3.97;0.63;;;;;;;;;;5042730;28;20084;-66
2024/01/18 11:00:47;;;;;;;4.97;0.60;;;;;;;;;;5044583;28;20065;-66
2024/01/18 11:03:14;;;;;;;4.68;0.60;;;;;;;;;;5044279;28;20053;-66
2024/01/18 11:05:41;;;;;;;6.85;1.70;;;;;;;;;;5046431;28;20076;-66
2024/01/18 11:08:07;;;;;;;4.03;1.02;;;;;;;;;;5029705;28;20060;-66
2024/01/18 11:10:34;;;;;;;7.72;1.13;;;;;;;;;;5025208;28;20074;-65
2024/01/18 11:13:01;;;;;;;11.35;1.33;;;;;;;;;;5024491;28;20494;-65
2024/01/18 11:15:27;;;;;;;12.60;2.45;;;;;;;;;;5044741;28;20276;-65
2024/01/18 11:17:54;;;;;;;5.10;0.90;;;;;;;;;;5022881;28;20442;-65
2024/01/18 11:20:21;;;;;;;4.05;0.77;;;;;;;;;;5046611;28;20042;-65
2024/01/18 11:22:47;;;;;;;6.38;1.20;;;;;;;;;;5022934;28;20099;-66
2024/01/18 11:25:19;;;;;;;6.75;0.88;;;;;;;;;;5044109;28;20576;-66
2024/01/18 11:27:45;;;;;;;6.20;1.30;;;;;;;;;;4997400;28;20107;-66
2024/01/18 11:30:13;;;;;;;4.55;1.17;;;;;;;;;;5023208;28;20045;-66
2024/01/18 11:32:39;;;;;;;7.63;0.98;;;;;;;;;;5008761;28;20053;-66
2024/01/18 11:35:08;;;;;;;5.03;0.77;;;;;;;;;;5027585;28;20045;-66
2024/01/18 11:37:35;;;;;;;13.82;3.53;;;;;;;;;;5025586;28;20486;-66
2024/01/18 11:40:01;;;;;;;8.48;1.17;;;;;;;;;;5008881;28;20045;-66
2024/01/18 11:42:28;;;;;;;4.90;0.85;;;;;;;;;;5006454;28;20080;-69
2024/01/18 11:44:55;;;;;;;7.30;0.80;;;;;;;;;;5002751;28;20537;-66
2024/01/18 11:47:23;;;;;;;9.25;1.02;;;;;;;;;;5021381;28;20163;-66
2024/01/18 11:49:49;;;;;;;6.95;0.80;;;;;;;;;;5012845;28;20076;-66
2024/01/18 11:52:16;;;;;;;9.80;2.08;;;;;;;;;;5004601;28;20045;-66
2024/01/18 11:54:44;;;;;;;5.25;1.42;;;;;;;;;;5003353;28;20120;-66
2024/01/18 11:57:14;;;;;;;5.28;1.00;;;;;;;;;;5004932;28;20048;-66
2024/01/18 11:59:42;;;;;;;5.80;0.82;;;;;;;;;;5008779;28;20056;-67
2024/01/18 12:02:08;;;;;;;7.57;1.30;;;;;;;;;;5012141;28;20127;-66
2024/01/18 12:04:34;;;;;;;6.53;0.70;;;;;;;;;;5013610;28;20144;-66
2024/01/18 12:07:01;;;;;;;9.05;1.20;;;;;;;;;;5028979;28;20053;-66
2024/01/18 12:09:30;;;;;;;4.93;0.82;;;;;;;;;;5022492;28;20060;-66
2024/01/18 12:11:57;;;;;;;5.75;1.13;;;;;;;;;;5025124;28;20049;-66
2024/01/18 12:14:24;;;;;;;3.58;0.95;;;;;;;;;;5008537;28;20049;-66
2024/01/18 12:16:50;;;;;;;5.95;0.90;;;;;;;;;;5011885;28;20091;-66
2024/01/18 12:19:31;;;;;;;13.00;1.58;;;;;;;;;;5025272;28;20227;-66
2024/01/18 12:21:57;;;;;;;7.80;1.05;;;;;;;;;;5012554;28;20507;-66
2024/01/18 12:24:23;;;;;;;6.00;1.10;;;;;;;;;;5009727;28;20044;-71
2024/01/18 12:26:50;;;;;;;8.98;1.90;;;;;;;;;;5037993;28;20113;-73
2024/01/18 12:29:16;;;;;;;6.22;0.82;;;;;;;;;;5034721;28;20088;-71
2024/01/18 12:31:45;;;;;;;7.47;1.20;;;;;;;;;;5027532;28;20095;-66
2024/01/18 12:34:12;;;;;;;6.40;1.10;;;;;;;;;;5037339;28;20124;-66
2024/01/18 12:36:38;;;;;;;6.47;1.00;;;;;;;;;;5024415;28;20056;-67
2024/01/18 12:39:05;;;;;;;11.75;1.20;;;;;;;;;;5025345;28;20462;-66
2024/01/18 12:41:31;;;;;;;8.88;1.75;;;;;;;;;;5025155;28;20226;-67
2024/01/18 12:44:06;;;;;;;7.85;1.90;;;;;;;;;;5026723;28;20068;-66
2024/01/18 12:46:32;;;;;;;8.23;0.93;;;;;;;;;;5026721;28;20431;-66
2024/01/18 12:48:58;;;;;;;12.70;1.30;;;;;;;;;;5025298;28;20048;-67
2024/01/18 12:51:25;;;;;;;8.15;1.40;;;;;;;;;;5043895;28;20060;-67
2024/01/18 12:53:51;;;;;;;6.65;1.20;;;;;;;;;;5044680;28;20044;-67
2024/01/18 12:56:17;;;;;;;7.68;1.20;;;;;;;;;;5028125;28;20116;-67
2024/01/18 12:58:45;;;;;;;9.32;1.05;;;;;;;;;;5049835;28;20114;-67
2024/01/18 13:01:24;;;;;;;5.80;1.02;;;;;;;;;;5029894;28;20453;-67
2024/01/18 13:03:50;;;;;;;7.05;1.60;;;;;;;;;;5031680;28;20522;-67
2024/01/18 13:06:17;;;;;;;8.27;1.33;;;;;;;;;;5046152;28;20041;-67
2024/01/18 13:08:43;;;;;;;9.45;1.35;;;;;;;;;;5029431;28;20477;-67
2024/01/18 13:11:09;;;;;;;9.30;1.13;;;;;;;;;;5047119;28;20044;-66
2024/01/18 13:13:36;;;;;;;9.43;1.30;;;;;;;;;;5048623;28;20041;-67
2024/01/18 13:16:02;;;;;;;9.13;1.30;;;;;;;;;;5047555;28;20049;-67
2024/01/18 13:18:28;;;;;;;5.63;0.90;;;;;;;;;;5025755;28;20050;-66
2024/01/18 13:20:54;;;;;;;7.03;1.20;;;;;;;;;;5028625;28;20156;-72
2024/01/18 13:23:20;;;;;;;6.43;1.00;;;;;;;;;;5049807;28;20480;-67
2024/01/18 13:25:47;;;;;;;6.13;0.90;;;;;;;;;;5040435;28;20131;-67
2024/01/18 13:28:13;;;;;;;8.45;1.83;;;;;;;;;;5025896;28;20124;-67
2024/01/18 13:30:39;;;;;;;5.68;1.08;;;;;;;;;;5017574;28;20128;-67
2024/01/18 13:33:05;;;;;;;6.53;1.08;;;;;;;;;;5022818;28;20080;-67
2024/01/18 13:35:31;;;;;;;9.43;1.42;;;;;;;;;;5044754;28;20167;-66
2024/01/18 13:37:58;;;;;;;7.28;1.38;;;;;;;;;;5041973;28;20052;-67
2024/01/18 13:40:24;;;;;;;7.50;1.00;;;;;;;;;;5033755;28;20166;-67
2024/01/18 13:42:50;;;;;;;5.43;0.82;;;;;;;;;;5024086;28;20477;-67
2024/01/18 13:45:17;;;;;;;8.65;1.20;;;;;;;;;;5045598;28;20045;-67
2024/01/18 13:47:43;;;;;;;5.70;0.95;;;;;;;;;;5027287;28;20128;-67
2024/01/18 13:50:09;;;;;;;4.28;1.10;;;;;;;;;;5048470;28;20059;-67
2024/01/18 13:52:35;;;;;;;8.93;1.10;;;;;;;;;;5037334;28;20057;-67
2024/01/18 13:55:02;;;;;;;4.70;1.13;;;;;;;;;;5024297;28;20397;-67
2024/01/18 13:57:28;;;;;;;2.33;0.70;;;;;;;;;;5010291;28;20209;-67
2024/01/18 13:59:54;;;;;;;5.90;1.08;;;;;;;;;;5041983;28;20056;-67
2024/01/18 14:02:20;;;;;;;6.03;1.30;;;;;;;;;;5025132;28;20481;-67
2024/01/18 14:04:46;;;;;;;4.18;0.80;;;;;;;;;;5047056;28;20041;-66
2024/01/18 14:07:13;;;;;;;4.63;0.90;;;;;;;;;;5048235;28;21286;-66
2024/01/18 14:09:40;;;;;;;6.97;1.33;;;;;;;;;;5043074;28;20528;-67
2024/01/18 14:12:06;;;;;;;5.00;0.95;;;;;;;;;;5029394;28;20126;-67
2024/01/18 14:14:32;;;;;;;3.33;0.88;;;;;;;;;;5027405;28;20049;-66
2024/01/18 14:16:59;;;;;;;5.22;0.95;;;;;;;;;;5046839;28;20673;-66
2024/01/18 14:19:25;;;;;;;6.72;0.90;;;;;;;;;;5028445;28;20036;-67
2024/01/18 14:21:51;;;;;;;6.45;0.95;;;;;;;;;;5044758;28;20047;-67
2024/01/18 14:24:17;;;;;;;5.18;0.93;;;;;;;;;;5046313;28;20440;-67
2024/01/18 14:26:43;;;;;;;7.90;0.98;;;;;;;;;;5024822;28;20162;-66
2024/01/18 14:29:12;;;;;;;4.07;0.85;;;;;;;;;;5027836;28;20114;-66
2024/01/18 14:31:39;;;;;;;3.92;0.77;;;;;;;;;;5026391;28;20146;-66
2024/01/18 14:34:05;;;;;;;3.55;0.70;;;;;;;;;;5028156;28;20130;-67
2024/01/18 14:36:31;;;;;;;4.70;0.90;;;;;;;;;;5045655;28;20575;-67
2024/01/18 14:38:57;;;;;;;3.65;0.88;;;;;;;;;;5043238;28;20056;-66